createdAt,value
2022-10-21T00:02:14.147Z,15.60
2022-10-21T00:04:43.180Z,15.60
2022-10-21T00:07:14.845Z,15.60
2022-10-21T00:09:43.864Z,15.50
2022-10-21T00:12:12.936Z,15.50
2022-10-21T00:14:43.416Z,15.50
2022-10-21T00:17:12.501Z,15.50
2022-10-21T00:19:42.829Z,15.50
2022-10-21T00:22:11.974Z,15.50
2022-10-21T00:24:41.070Z,15.50
2022-10-21T00:27:10.320Z,15.50
2022-10-21T00:29:39.471Z,15.50
2022-10-21T00:32:10.064Z,15.50
2022-10-21T00:34:39.292Z,15.40
2022-10-21T00:37:08.344Z,15.40
2022-10-21T00:39:37.490Z,15.40
2022-10-21T00:42:07.871Z,15.40
2022-10-21T00:44:38.525Z,15.40
2022-10-21T00:47:12.603Z,15.40
2022-10-21T00:49:45.121Z,15.40
2022-10-21T00:52:17.301Z,15.40
2022-10-21T00:54:48.157Z,15.40
2022-10-21T00:57:18.743Z,15.50
2022-10-21T00:59:52.788Z,15.40
2022-10-21T01:02:23.469Z,15.40
2022-10-21T01:04:54.910Z,15.40
2022-10-21T01:07:24.402Z,15.40
2022-10-21T01:09:53.373Z,15.40
2022-10-21T01:12:34.775Z,15.40
2022-10-21T01:15:10.541Z,15.40
2022-10-21T01:17:50.123Z,15.50
2022-10-21T01:20:38.073Z,15.40
2022-10-21T01:23:50.950Z,15.40
2022-10-21T01:26:38.539Z,15.40
2022-10-21T01:29:29.193Z,15.40
2022-10-21T01:32:08.637Z,15.40
2022-10-21T01:34:43.010Z,15.40
2022-10-21T01:37:19.453Z,15.40
2022-10-21T01:39:54.222Z,15.40
2022-10-21T01:42:30.672Z,15.30
2022-10-21T01:45:05.904Z,15.30
2022-10-21T01:47:39.887Z,15.30
2022-10-21T01:50:12.076Z,15.30
2022-10-21T01:52:43.128Z,15.30
2022-10-21T01:55:16.757Z,15.30
2022-10-21T01:57:54.039Z,15.30
2022-10-21T02:00:23.233Z,15.30
2022-10-21T02:02:53.993Z,15.40
2022-10-21T02:05:26.779Z,15.30
2022-10-21T02:07:56.557Z,15.30
2022-10-21T02:10:29.127Z,15.30
2022-10-21T02:13:02.013Z,15.30
2022-10-21T02:15:34.645Z,15.30
2022-10-21T02:18:08.833Z,15.30
2022-10-21T02:20:41.183Z,15.40
2022-10-21T02:23:14.123Z,15.40
2022-10-21T02:25:47.373Z,15.40
2022-10-21T02:28:16.792Z,15.40
2022-10-21T02:30:52.920Z,15.40
2022-10-21T02:33:30.277Z,15.40
2022-10-21T02:36:08.655Z,15.40
2022-10-21T02:38:42.336Z,15.30
2022-10-21T02:41:13.030Z,15.30
2022-10-21T02:43:48.206Z,15.30
2022-10-21T02:46:17.592Z,15.30
2022-10-21T02:48:49.496Z,15.30
2022-10-21T02:51:18.847Z,15.30
2022-10-21T02:53:47.888Z,15.30
2022-10-21T02:56:17.008Z,15.30
2022-10-21T02:58:46.040Z,15.30
2022-10-21T03:01:15.098Z,15.30
2022-10-21T03:03:44.129Z,15.30
2022-10-21T03:06:14.510Z,15.30
2022-10-21T03:08:43.669Z,15.30
2022-10-21T03:11:12.694Z,15.30
2022-10-21T03:13:41.693Z,15.30
2022-10-21T03:16:10.831Z,15.20
2022-10-21T03:18:39.982Z,15.20
2022-10-21T03:21:09.047Z,15.20
2022-10-21T03:23:39.552Z,15.10
2022-10-21T03:26:08.656Z,15.20
2022-10-21T03:28:37.678Z,15.20
2022-10-21T03:31:06.959Z,15.20
2022-10-21T03:33:35.972Z,15.20
2022-10-21T03:36:05.457Z,15.10
2022-10-21T03:38:34.440Z,15.20
2022-10-21T03:41:04.869Z,15.20
2022-10-21T03:43:33.862Z,15.20
2022-10-21T03:46:02.920Z,15.30
2022-10-21T03:48:31.871Z,15.20
2022-10-21T03:51:00.970Z,15.20
2022-10-21T03:53:42.721Z,15.30
2022-10-21T03:56:14.685Z,15.20
2022-10-21T03:58:43.925Z,15.20
2022-10-21T04:01:14.197Z,15.30
2022-10-21T04:03:43.335Z,15.20
2022-10-21T04:06:12.381Z,15.20
2022-10-21T04:08:41.419Z,15.30
2022-10-21T04:11:10.540Z,15.30
2022-10-21T04:13:40.954Z,15.30
2022-10-21T04:16:14.745Z,15.30
2022-10-21T04:18:43.817Z,15.30
2022-10-21T04:21:13.031Z,15.30
2022-10-21T04:23:42.116Z,15.30
2022-10-21T04:26:11.278Z,15.40
2022-10-21T04:28:41.654Z,15.40
2022-10-21T04:31:11.128Z,15.40
2022-10-21T04:33:40.337Z,15.40
2022-10-21T04:36:09.590Z,15.40
2022-10-21T04:38:38.566Z,15.40
2022-10-21T04:41:07.543Z,15.40
2022-10-21T04:43:38.431Z,15.40
2022-10-21T04:46:12.127Z,15.40
2022-10-21T04:48:41.304Z,15.40
2022-10-21T04:51:10.386Z,15.40
2022-10-21T04:53:39.398Z,15.40
2022-10-21T04:56:08.935Z,15.40
2022-10-21T04:58:37.993Z,15.40
2022-10-21T05:01:07.195Z,15.40
2022-10-21T05:03:37.640Z,15.40
2022-10-21T05:06:06.984Z,15.50
2022-10-21T05:08:35.983Z,15.50
2022-10-21T05:11:05.303Z,15.40
2022-10-21T05:13:34.717Z,15.40
2022-10-21T05:16:05.133Z,15.40
2022-10-21T05:18:34.155Z,15.30
2022-10-21T05:21:04.803Z,15.30
2022-10-21T05:23:34.078Z,15.30
2022-10-21T05:26:03.073Z,15.30
2022-10-21T05:28:32.076Z,15.20
2022-10-21T05:31:01.182Z,15.30
2022-10-21T05:33:30.128Z,15.20
2022-10-21T05:36:01.061Z,15.20
2022-10-21T05:38:31.816Z,15.30
2022-10-21T05:41:01.126Z,15.20
2022-10-21T05:43:30.244Z,15.20
2022-10-21T05:45:59.552Z,15.20
2022-10-21T05:48:28.551Z,15.30
2022-10-21T05:50:58.109Z,15.20
2022-10-21T05:53:27.442Z,15.30
2022-10-21T05:55:59.148Z,15.20
2022-10-21T05:58:29.125Z,15.20
2022-10-21T06:00:58.790Z,15.20
2022-10-21T06:03:30.541Z,15.20
2022-10-21T06:06:00.873Z,15.20
2022-10-21T06:08:32.023Z,15.20
2022-10-21T06:11:03.647Z,15.20
2022-10-21T06:13:33.157Z,15.20
2022-10-21T06:16:02.361Z,15.20
2022-10-21T06:18:31.746Z,15.20
2022-10-21T06:21:00.863Z,15.30
2022-10-21T06:23:30.253Z,15.30
2022-10-21T06:26:00.521Z,15.30
2022-10-21T06:28:33.340Z,15.30
2022-10-21T06:31:02.680Z,15.30
2022-10-21T06:33:32.039Z,15.30
2022-10-21T06:36:01.110Z,15.30
2022-10-21T06:38:32.297Z,15.30
2022-10-21T06:41:09.163Z,15.30
2022-10-21T06:43:43.078Z,15.30
2022-10-21T06:46:17.792Z,15.30
2022-10-21T06:48:46.993Z,15.30
2022-10-21T06:51:18.083Z,15.30
2022-10-21T06:53:47.825Z,15.30
2022-10-21T06:56:19.858Z,15.30
2022-10-21T06:58:51.699Z,15.40
2022-10-21T07:01:35.001Z,15.40
2022-10-21T07:04:11.210Z,15.40
2022-10-21T07:06:40.254Z,15.40
2022-10-21T07:09:10.802Z,15.40
2022-10-21T07:11:39.832Z,15.40
2022-10-21T07:14:12.108Z,15.40
2022-10-21T07:16:41.129Z,15.40
2022-10-21T07:19:11.354Z,15.40
2022-10-21T07:21:40.377Z,15.40
2022-10-21T07:24:10.553Z,15.50
2022-10-21T07:26:40.106Z,15.50
2022-10-21T07:29:10.607Z,15.50
2022-10-21T07:31:40.069Z,15.50
2022-10-21T07:34:10.366Z,15.50
2022-10-21T07:36:42.132Z,15.50
2022-10-21T07:39:14.585Z,15.50
2022-10-21T07:41:46.004Z,15.50
2022-10-21T07:44:16.789Z,15.50
2022-10-21T07:46:47.484Z,15.50
2022-10-21T07:49:18.371Z,15.60
2022-10-21T07:51:50.304Z,15.60
2022-10-21T07:54:20.312Z,15.60
2022-10-21T07:56:51.541Z,15.60
2022-10-21T07:59:23.538Z,15.60
2022-10-21T08:01:54.110Z,15.60
2022-10-21T08:04:29.792Z,15.60
2022-10-21T08:06:59.554Z,15.60
2022-10-21T08:09:28.600Z,15.60
2022-10-21T08:11:58.138Z,15.60
2022-10-21T08:14:28.678Z,15.60
2022-10-21T08:16:57.689Z,15.60
2022-10-21T08:19:29.981Z,15.60
2022-10-21T08:22:00.876Z,15.60
2022-10-21T08:24:30.309Z,15.60
2022-10-21T08:26:59.327Z,15.50
2022-10-21T08:29:29.820Z,15.50
2022-10-21T08:31:58.900Z,15.50
2022-10-21T08:34:28.175Z,15.50
2022-10-21T08:36:57.505Z,15.50
2022-10-21T08:39:26.642Z,15.50
2022-10-21T08:42:07.663Z,15.50
2022-10-21T08:44:46.083Z,15.50
2022-10-21T08:47:32.603Z,15.50
2022-10-21T08:50:04.135Z,15.50
2022-10-21T08:52:41.158Z,15.50
2022-10-21T08:55:18.625Z,15.50
2022-10-21T08:57:48.721Z,15.50
2022-10-21T09:00:21.912Z,15.50
2022-10-21T09:03:17.370Z,15.60
2022-10-21T09:06:15.104Z,15.60
2022-10-21T09:09:02.946Z,15.60
2022-10-21T09:11:47.569Z,15.60
2022-10-21T09:14:39.754Z,15.60
2022-10-21T09:17:22.449Z,15.60
2022-10-21T09:19:59.803Z,15.70
2022-10-21T09:22:42.965Z,15.60
2022-10-21T09:25:21.546Z,15.60
2022-10-21T09:27:56.585Z,15.70
2022-10-21T09:30:27.502Z,15.70
2022-10-21T09:33:04.065Z,15.70
2022-10-21T09:35:39.049Z,15.70
2022-10-21T09:38:16.030Z,15.70
2022-10-21T09:40:48.495Z,15.70
2022-10-21T09:43:19.791Z,15.70
2022-10-21T09:45:48.769Z,15.70
2022-10-21T09:48:31.624Z,15.70
2022-10-21T09:51:10.949Z,15.70
2022-10-21T09:53:51.671Z,15.70
2022-10-21T09:56:26.186Z,15.80
2022-10-21T09:59:07.532Z,15.90
2022-10-21T10:01:39.278Z,15.90
2022-10-21T10:04:14.158Z,16.00
2022-10-21T10:06:44.837Z,16.00
2022-10-21T10:09:18.883Z,16.00
2022-10-21T10:11:54.904Z,16.00
2022-10-21T10:14:28.194Z,16.00
2022-10-21T10:16:58.056Z,16.00
2022-10-21T10:19:30.050Z,16.10
2022-10-21T10:22:11.214Z,16.10
2022-10-21T10:24:41.633Z,16.10
2022-10-21T10:27:15.735Z,16.10
2022-10-21T10:29:53.726Z,16.10
2022-10-21T10:32:26.017Z,16.10
2022-10-21T10:34:59.821Z,16.20
2022-10-21T10:37:32.685Z,16.20
2022-10-21T10:40:04.933Z,16.20
2022-10-21T10:42:37.701Z,16.20
2022-10-21T10:45:15.887Z,16.30
2022-10-21T10:47:51.570Z,16.30
2022-10-21T10:50:46.869Z,16.30
2022-10-21T10:53:29.708Z,16.30
2022-10-21T10:56:19.789Z,16.30
2022-10-21T10:58:57.881Z,16.30
2022-10-21T11:01:32.469Z,16.30
2022-10-21T11:04:11.456Z,16.30
2022-10-21T11:06:46.946Z,16.30
2022-10-21T11:09:17.236Z,16.30
2022-10-21T11:11:49.351Z,16.30
2022-10-21T11:14:22.531Z,16.30
2022-10-21T11:17:01.966Z,16.40
2022-10-21T11:19:39.978Z,16.40
2022-10-21T11:22:16.440Z,16.40
2022-10-21T11:24:56.383Z,16.60
2022-10-21T11:27:47.533Z,16.70
2022-10-21T11:30:20.030Z,16.80
2022-10-21T11:32:58.188Z,16.80
2022-10-21T11:35:38.524Z,16.80
2022-10-21T11:38:52.762Z,16.80
2022-10-21T11:41:29.664Z,16.80
2022-10-21T11:44:12.881Z,16.80
2022-10-21T11:46:50.147Z,16.90
2022-10-21T11:49:37.180Z,16.90
2022-10-21T11:52:16.860Z,16.90
2022-10-21T11:55:10.685Z,17.00
2022-10-21T11:57:49.045Z,17.00
2022-10-21T12:00:21.792Z,17.10
2022-10-21T12:03:10.685Z,17.00
2022-10-21T12:05:53.076Z,17.00
2022-10-21T12:08:27.473Z,17.00
2022-10-21T12:11:02.142Z,17.10
2022-10-21T12:13:34.589Z,17.20
2022-10-21T12:16:08.941Z,17.20
2022-10-21T12:18:44.199Z,17.30
2022-10-21T12:21:17.747Z,17.30
2022-10-21T12:23:54.017Z,17.40
2022-10-21T12:26:28.023Z,17.40
2022-10-21T12:29:03.881Z,17.50
2022-10-21T12:31:46.042Z,17.50
2022-10-21T12:34:15.931Z,17.60
2022-10-21T12:36:49.513Z,17.50
2022-10-21T12:39:37.094Z,17.60
2022-10-21T12:42:13.184Z,17.70
2022-10-21T12:44:48.066Z,17.70
2022-10-21T12:47:30.135Z,17.80
2022-10-21T12:50:29.397Z,17.80
2022-10-21T12:53:09.378Z,17.80
2022-10-21T12:55:41.427Z,17.70
2022-10-21T12:58:31.805Z,17.70
2022-10-21T13:01:02.624Z,17.70
2022-10-21T13:04:00.927Z,17.70
2022-10-21T13:06:53.791Z,17.70
2022-10-21T13:09:35.875Z,17.60
2022-10-21T13:12:16.176Z,17.70
2022-10-21T13:14:48.759Z,17.70
2022-10-21T13:17:31.493Z,17.70
2022-10-21T13:20:38.545Z,17.70
2022-10-21T13:23:31.820Z,17.60
2022-10-21T13:26:25.979Z,17.60
2022-10-21T13:29:00.552Z,17.50
2022-10-21T13:31:31.425Z,17.40
2022-10-21T13:34:00.946Z,17.40
2022-10-21T13:36:39.671Z,17.30
2022-10-21T13:39:24.525Z,17.30
2022-10-21T13:42:01.288Z,17.30
2022-10-21T13:44:35.512Z,17.20
2022-10-21T13:47:28.373Z,17.20
2022-10-21T13:49:59.416Z,17.20
2022-10-21T13:52:29.809Z,17.20
2022-10-21T13:55:00.059Z,17.20
2022-10-21T13:57:32.702Z,17.30
2022-10-21T14:00:03.209Z,17.20
2022-10-21T14:02:35.374Z,17.20
2022-10-21T14:05:04.650Z,17.30
2022-10-21T14:07:34.346Z,17.30
2022-10-21T14:10:07.466Z,17.30
2022-10-21T14:12:41.764Z,17.30
2022-10-21T14:15:18.144Z,17.30
2022-10-21T14:17:55.207Z,17.20
2022-10-21T14:20:33.972Z,17.20
2022-10-21T14:23:05.442Z,17.20
2022-10-21T14:25:35.066Z,17.10
2022-10-21T14:28:06.303Z,17.20
2022-10-21T14:30:37.224Z,17.20
2022-10-21T14:33:08.555Z,17.20
2022-10-21T14:35:37.472Z,17.10
2022-10-21T14:38:26.819Z,17.10
2022-10-21T14:41:02.060Z,17.10
2022-10-21T14:43:35.061Z,17.10
2022-10-21T14:46:07.143Z,17.10
2022-10-21T14:48:41.545Z,17.10
2022-10-21T14:51:16.574Z,17.10
2022-10-21T14:53:54.926Z,17.00
2022-10-21T14:56:30.949Z,17.00
2022-10-21T14:59:01.957Z,17.10
2022-10-21T15:01:32.148Z,17.10
2022-10-21T15:04:02.856Z,17.10
2022-10-21T15:06:34.594Z,17.10
2022-10-21T15:09:17.799Z,17.20
2022-10-21T15:11:48.556Z,17.20
2022-10-21T15:14:24.189Z,17.20
2022-10-21T15:16:55.764Z,17.20
2022-10-21T15:19:28.280Z,17.20
2022-10-21T15:22:00.682Z,17.20
2022-10-21T15:24:38.361Z,17.10
2022-10-21T15:27:07.717Z,17.10
2022-10-21T15:29:39.269Z,17.00
2022-10-21T15:32:08.375Z,17.00
2022-10-21T15:34:38.893Z,16.90
2022-10-21T15:37:08.257Z,16.90
2022-10-21T15:39:37.324Z,16.90
2022-10-21T15:42:06.931Z,16.80
2022-10-21T15:44:36.057Z,16.80
2022-10-21T15:47:11.133Z,16.80
2022-10-21T15:49:42.393Z,16.80
2022-10-21T15:52:11.682Z,16.80
2022-10-21T15:54:40.663Z,16.70
2022-10-21T15:57:18.041Z,16.70
2022-10-21T15:59:47.636Z,16.70
2022-10-21T16:02:18.549Z,16.70
2022-10-21T16:04:53.008Z,16.60
2022-10-21T16:07:25.048Z,16.60
2022-10-21T16:09:54.174Z,16.50
2022-10-21T16:12:24.560Z,16.50
2022-10-21T16:14:54.390Z,16.50
2022-10-21T16:17:24.411Z,16.50
2022-10-21T16:19:54.875Z,16.50
2022-10-21T16:22:24.271Z,16.50
2022-10-21T16:24:53.339Z,16.50
2022-10-21T16:27:31.029Z,16.40
2022-10-21T16:30:17.722Z,16.40
2022-10-21T16:32:47.300Z,16.40
2022-10-21T16:35:18.704Z,16.40
2022-10-21T16:37:48.037Z,16.40
2022-10-21T16:40:20.922Z,16.40
2022-10-21T16:42:50.922Z,16.40
2022-10-21T16:45:21.802Z,16.40
2022-10-21T16:47:53.357Z,16.40
2022-10-21T16:50:26.870Z,16.30
2022-10-21T16:52:55.863Z,16.30
2022-10-21T16:55:24.866Z,16.30
2022-10-21T16:57:53.875Z,16.30
2022-10-21T17:00:23.600Z,16.30
2022-10-21T17:02:52.859Z,16.30
2022-10-21T17:05:23.527Z,16.30
2022-10-21T17:07:52.703Z,16.30
2022-10-21T17:10:21.708Z,16.30
2022-10-21T17:12:57.027Z,16.30
2022-10-21T17:15:27.971Z,16.30
2022-10-21T17:17:57.028Z,16.40
2022-10-21T17:20:30.466Z,16.30
2022-10-21T17:22:59.855Z,16.30
2022-10-21T17:25:30.094Z,16.40
2022-10-21T17:27:59.304Z,16.40
2022-10-21T17:30:28.635Z,16.40
2022-10-21T17:32:57.940Z,16.30
2022-10-21T17:35:28.440Z,16.30
2022-10-21T17:37:57.483Z,16.30
2022-10-21T17:40:27.880Z,16.30
2022-10-21T17:42:58.420Z,16.30
2022-10-21T17:45:27.478Z,16.30
2022-10-21T17:47:56.488Z,16.30
2022-10-21T17:50:26.004Z,16.30
2022-10-21T17:52:56.742Z,16.30
2022-10-21T17:55:27.072Z,16.30
2022-10-21T17:57:56.112Z,16.30
2022-10-21T18:00:25.242Z,16.20
2022-10-21T18:02:54.547Z,16.30
2022-10-21T18:05:23.646Z,16.20
2022-10-21T18:07:52.754Z,16.30
2022-10-21T18:10:23.389Z,16.30
2022-10-21T18:12:52.485Z,16.20
2022-10-21T18:15:22.516Z,16.20
2022-10-21T18:17:51.588Z,16.20
2022-10-21T18:20:20.993Z,16.20
2022-10-21T18:22:50.128Z,16.20
2022-10-21T18:25:19.438Z,16.20
2022-10-21T18:27:49.873Z,16.20
2022-10-21T18:30:19.066Z,16.20
2022-10-21T18:32:48.303Z,16.20
2022-10-21T18:35:17.481Z,16.20
2022-10-21T18:37:47.067Z,16.10
2022-10-21T18:40:16.062Z,16.20
2022-10-21T18:42:45.126Z,16.10
2022-10-21T18:45:15.799Z,16.10
2022-10-21T18:47:47.416Z,16.10
2022-10-21T18:50:16.834Z,16.10
2022-10-21T18:52:46.212Z,16.10
2022-10-21T18:55:15.421Z,16.10
2022-10-21T18:57:44.897Z,16.10
2022-10-21T19:00:16.069Z,16.10
2022-10-21T19:02:45.106Z,16.10
2022-10-21T19:05:14.112Z,16.10
2022-10-21T19:07:43.305Z,16.10
2022-10-21T19:10:13.998Z,16.10
2022-10-21T19:12:43.189Z,16.10
2022-10-21T19:15:12.646Z,16.10
2022-10-21T19:17:43.962Z,16.10
2022-10-21T19:20:13.777Z,16.10
2022-10-21T19:22:42.814Z,16.10
2022-10-21T19:25:11.895Z,16.10
2022-10-21T19:27:41.492Z,16.10
2022-10-21T19:30:11.843Z,16.10
2022-10-21T19:32:42.607Z,16.10
2022-10-21T19:35:11.945Z,16.10
2022-10-21T19:37:40.975Z,16.10
2022-10-21T19:40:10.690Z,16.10
2022-10-21T19:42:41.244Z,16.10
2022-10-21T19:45:16.957Z,16.10
2022-10-21T19:47:47.767Z,16.10
2022-10-21T19:50:16.975Z,16.10
2022-10-21T19:52:49.045Z,16.10
2022-10-21T19:55:19.202Z,16.10
2022-10-21T19:57:48.480Z,16.10
2022-10-21T20:00:17.700Z,16.10
2022-10-21T20:02:48.118Z,16.10
2022-10-21T20:05:17.270Z,16.10
2022-10-21T20:07:46.328Z,16.10
2022-10-21T20:10:15.762Z,16.10
2022-10-21T20:12:44.728Z,16.10
2022-10-21T20:15:13.872Z,16.10
2022-10-21T20:17:42.975Z,16.10
2022-10-21T20:20:13.660Z,16.10
2022-10-21T20:22:43.173Z,16.10
2022-10-21T20:25:12.606Z,16.10
2022-10-21T20:27:42.254Z,16.10
2022-10-21T20:30:12.453Z,16.10
2022-10-21T20:32:41.827Z,16.10
2022-10-21T20:35:12.391Z,16.10
2022-10-21T20:37:41.968Z,16.10
2022-10-21T20:40:12.170Z,16.10
2022-10-21T20:42:41.357Z,16.10
2022-10-21T20:45:11.450Z,16.10
2022-10-21T20:47:40.661Z,16.10
2022-10-21T20:50:10.743Z,16.10
2022-10-21T20:52:41.634Z,16.10
2022-10-21T20:55:11.160Z,16.10
2022-10-21T20:57:40.595Z,16.10
2022-10-21T21:00:13.347Z,16.10
2022-10-21T21:02:43.980Z,16.10
2022-10-21T21:05:15.929Z,16.10
2022-10-21T21:07:46.388Z,16.10
2022-10-21T21:10:15.670Z,16.00
2022-10-21T21:12:44.818Z,16.10
2022-10-21T21:15:13.900Z,16.10
2022-10-21T21:17:43.005Z,16.10
2022-10-21T21:20:13.534Z,16.10
2022-10-21T21:22:43.019Z,16.10
2022-10-21T21:25:13.643Z,16.10
2022-10-21T21:27:42.823Z,16.10
2022-10-21T21:30:12.971Z,16.10
2022-10-21T21:32:42.216Z,16.10
2022-10-21T21:35:12.711Z,16.20
2022-10-21T21:37:41.723Z,16.10
2022-10-21T21:40:13.245Z,16.10
2022-10-21T21:42:42.405Z,16.10
2022-10-21T21:45:12.332Z,16.10
2022-10-21T21:47:41.324Z,16.10
2022-10-21T21:50:10.932Z,16.00
2022-10-21T21:52:39.959Z,16.00
2022-10-21T21:55:09.674Z,16.00
2022-10-21T21:57:40.078Z,16.00
2022-10-21T22:00:10.433Z,16.00
2022-10-21T22:02:39.501Z,16.00
2022-10-21T22:05:09.180Z,16.00
2022-10-21T22:07:38.281Z,16.00
2022-10-21T22:10:08.267Z,15.90
2022-10-21T22:12:37.281Z,15.90
2022-10-21T22:15:13.597Z,15.90
2022-10-21T22:17:45.545Z,15.90
2022-10-21T22:20:14.557Z,16.00
2022-10-21T22:22:43.662Z,15.90
2022-10-21T22:25:15.200Z,16.00
2022-10-21T22:27:44.321Z,16.00
2022-10-21T22:30:16.374Z,16.00
2022-10-21T22:32:45.461Z,16.00
2022-10-21T22:35:16.214Z,16.00
2022-10-21T22:37:45.290Z,16.00
2022-10-21T22:40:14.321Z,16.00
2022-10-21T22:45:15.404Z,16.10
2022-10-21T22:47:44.467Z,16.00
2022-10-21T22:50:13.670Z,16.10
2022-10-21T22:52:43.422Z,16.10
2022-10-21T22:55:12.788Z,16.10
2022-10-21T22:57:42.135Z,16.10
2022-10-21T23:00:12.276Z,16.10
2022-10-21T23:02:43.092Z,16.10
2022-10-21T23:05:12.408Z,16.10
2022-10-21T23:07:41.505Z,16.10
2022-10-21T23:10:11.596Z,16.10
2022-10-21T23:12:40.898Z,16.10
2022-10-21T23:15:10.961Z,16.10
2022-10-21T23:17:39.918Z,16.10
2022-10-21T23:20:13.758Z,16.10
2022-10-21T23:22:43.100Z,16.10
2022-10-21T23:25:12.326Z,16.10
2022-10-21T23:27:41.399Z,16.10
2022-10-21T23:30:11.578Z,16.10
2022-10-21T23:32:40.900Z,16.10
2022-10-21T23:35:11.742Z,16.20
2022-10-21T23:37:41.187Z,16.20
2022-10-21T23:40:11.840Z,16.20
2022-10-21T23:42:42.873Z,16.20
2022-10-21T23:45:13.038Z,16.20
2022-10-21T23:47:42.432Z,16.20
2022-10-21T23:50:13.740Z,16.10
2022-10-21T23:52:42.821Z,16.10
2022-10-21T23:55:12.324Z,16.10
2022-10-21T23:57:41.526Z,16.10
